sensor_id;sensor_type;location;lat;lon;timestamp;temperature;humidity
42037;DHT22;30340;52.004;5.908;2023-05-16T00:00:58;11.00;83.00
42037;DHT22;30340;52.004;5.908;2023-05-16T00:03:25;11.10;83.00
42037;DHT22;30340;52.004;5.908;2023-05-16T00:05:51;11.00;83.00
42037;DHT22;30340;52.004;5.908;2023-05-16T00:08:17;11.00;82.90
42037;DHT22;30340;52.004;5.908;2023-05-16T00:10:43;11.00;83.10
42037;DHT22;30340;52.004;5.908;2023-05-16T00:13:08;11.00;83.10
42037;DHT22;30340;52.004;5.908;2023-05-16T00:15:34;11.00;83.00
42037;DHT22;30340;52.004;5.908;2023-05-16T00:18:00;11.00;82.90
42037;DHT22;30340;52.004;5.908;2023-05-16T00:20:26;11.00;83.40
42037;DHT22;30340;52.004;5.908;2023-05-16T00:22:53;11.00;82.50
42037;DHT22;30340;52.004;5.908;2023-05-16T00:25:18;11.00;82.50
42037;DHT22;30340;52.004;5.908;2023-05-16T00:27:45;11.00;82.40
42037;DHT22;30340;52.004;5.908;2023-05-16T00:30:11;10.90;82.40
42037;DHT22;30340;52.004;5.908;2023-05-16T00:32:37;10.90;82.40
42037;DHT22;30340;52.004;5.908;2023-05-16T00:35:03;10.90;82.40
42037;DHT22;30340;52.004;5.908;2023-05-16T00:37:29;10.80;82.50
42037;DHT22;30340;52.004;5.908;2023-05-16T00:39:55;10.70;82.50
42037;DHT22;30340;52.004;5.908;2023-05-16T00:42:20;10.70;82.60
42037;DHT22;30340;52.004;5.908;2023-05-16T00:44:49;10.70;82.60
42037;DHT22;30340;52.004;5.908;2023-05-16T00:47:14;10.60;82.80
42037;DHT22;30340;52.004;5.908;2023-05-16T00:49:40;10.60;82.70
42037;DHT22;30340;52.004;5.908;2023-05-16T00:52:06;10.60;82.90
42037;DHT22;30340;52.004;5.908;2023-05-16T00:54:33;10.60;82.70
42037;DHT22;30340;52.004;5.908;2023-05-16T00:56:58;10.50;82.70
42037;DHT22;30340;52.004;5.908;2023-05-16T00:59:24;10.50;82.80
42037;DHT22;30340;52.004;5.908;2023-05-16T01:01:50;10.40;82.80
42037;DHT22;30340;52.004;5.908;2023-05-16T01:04:17;10.40;82.80
42037;DHT22;30340;52.004;5.908;2023-05-16T01:06:43;10.40;82.70
42037;DHT22;30340;52.004;5.908;2023-05-16T01:09:09;10.40;82.70
42037;DHT22;30340;52.004;5.908;2023-05-16T01:11:53;10.30;82.60
42037;DHT22;30340;52.004;5.908;2023-05-16T01:17:06;10.30;82.50
42037;DHT22;30340;52.004;5.908;2023-05-16T01:27:54;10.20;82.60
42037;DHT22;30340;52.004;5.908;2023-05-16T01:30:21;10.10;82.50
42037;DHT22;30340;52.004;5.908;2023-05-16T01:32:50;10.10;82.50
42037;DHT22;30340;52.004;5.908;2023-05-16T01:35:17;10.00;82.70
42037;DHT22;30340;52.004;5.908;2023-05-16T01:38:25;10.00;82.60
42037;DHT22;30340;52.004;5.908;2023-05-16T01:41:18;10.00;82.70
42037;DHT22;30340;52.004;5.908;2023-05-16T01:43:48;10.00;82.70
42037;DHT22;30340;52.004;5.908;2023-05-16T01:46:29;10.00;82.70
42037;DHT22;30340;52.004;5.908;2023-05-16T01:49:05;9.90;82.70
42037;DHT22;30340;52.004;5.908;2023-05-16T01:51:32;9.90;82.60
42037;DHT22;30340;52.004;5.908;2023-05-16T01:54:05;9.90;82.60
42037;DHT22;30340;52.004;5.908;2023-05-16T01:56:34;9.90;82.60
42037;DHT22;30340;52.004;5.908;2023-05-16T01:59:01;9.90;82.60
42037;DHT22;30340;52.004;5.908;2023-05-16T02:01:29;9.90;82.60
42037;DHT22;30340;52.004;5.908;2023-05-16T02:03:56;9.90;82.60
42037;DHT22;30340;52.004;5.908;2023-05-16T02:06:22;9.90;82.50
42037;DHT22;30340;52.004;5.908;2023-05-16T02:08:48;9.90;82.40
42037;DHT22;30340;52.004;5.908;2023-05-16T02:11:14;9.80;82.40
42037;DHT22;30340;52.004;5.908;2023-05-16T02:13:39;9.80;82.30
42037;DHT22;30340;52.004;5.908;2023-05-16T02:16:05;9.70;82.30
42037;DHT22;30340;52.004;5.908;2023-05-16T02:18:31;9.70;82.30
42037;DHT22;30340;52.004;5.908;2023-05-16T02:20:56;9.70;82.90
42037;DHT22;30340;52.004;5.908;2023-05-16T02:23:22;9.70;82.30
42037;DHT22;30340;52.004;5.908;2023-05-16T02:25:47;9.70;82.20
42037;DHT22;30340;52.004;5.908;2023-05-16T02:28:13;9.70;82.10
42037;DHT22;30340;52.004;5.908;2023-05-16T02:30:38;9.70;82.10
42037;DHT22;30340;52.004;5.908;2023-05-16T02:33:04;9.60;82.10
42037;DHT22;30340;52.004;5.908;2023-05-16T02:35:30;9.70;82.20
42037;DHT22;30340;52.004;5.908;2023-05-16T02:37:56;9.70;82.20
42037;DHT22;30340;52.004;5.908;2023-05-16T02:40:21;9.70;82.20
42037;DHT22;30340;52.004;5.908;2023-05-16T02:42:47;9.60;82.10
42037;DHT22;30340;52.004;5.908;2023-05-16T02:45:13;9.60;82.10
42037;DHT22;30340;52.004;5.908;2023-05-16T02:47:38;9.60;82.20
42037;DHT22;30340;52.004;5.908;2023-05-16T02:50:04;9.60;82.10
42037;DHT22;30340;52.004;5.908;2023-05-16T02:52:30;9.50;82.10
42037;DHT22;30340;52.004;5.908;2023-05-16T02:54:55;9.50;82.20
42037;DHT22;30340;52.004;5.908;2023-05-16T02:57:21;9.50;82.30
42037;DHT22;30340;52.004;5.908;2023-05-16T02:59:47;9.50;82.40
42037;DHT22;30340;52.004;5.908;2023-05-16T03:02:12;9.50;82.40
42037;DHT22;30340;52.004;5.908;2023-05-16T03:04:38;9.50;82.40
42037;DHT22;30340;52.004;5.908;2023-05-16T03:07:04;9.40;82.40
42037;DHT22;30340;52.004;5.908;2023-05-16T03:09:29;9.40;82.50
42037;DHT22;30340;52.004;5.908;2023-05-16T03:11:55;9.40;82.50
42037;DHT22;30340;52.004;5.908;2023-05-16T03:14:20;9.40;82.50
42037;DHT22;30340;52.004;5.908;2023-05-16T03:16:46;9.40;82.50
42037;DHT22;30340;52.004;5.908;2023-05-16T03:19:12;9.40;82.60
42037;DHT22;30340;52.004;5.908;2023-05-16T03:21:38;9.40;82.60
42037;DHT22;30340;52.004;5.908;2023-05-16T03:24:04;9.40;82.70
42037;DHT22;30340;52.004;5.908;2023-05-16T03:26:29;9.40;82.70
42037;DHT22;30340;52.004;5.908;2023-05-16T03:28:55;9.40;82.70
42037;DHT22;30340;52.004;5.908;2023-05-16T03:31:21;9.40;82.80
42037;DHT22;30340;52.004;5.908;2023-05-16T03:33:46;9.40;82.70
42037;DHT22;30340;52.004;5.908;2023-05-16T03:36:12;9.40;82.70
42037;DHT22;30340;52.004;5.908;2023-05-16T03:38:38;9.40;82.60
42037;DHT22;30340;52.004;5.908;2023-05-16T03:41:03;9.40;83.20
42037;DHT22;30340;52.004;5.908;2023-05-16T03:43:29;9.40;82.50
42037;DHT22;30340;52.004;5.908;2023-05-16T03:45:54;9.40;82.40
42037;DHT22;30340;52.004;5.908;2023-05-16T03:48:20;9.40;82.50
42037;DHT22;30340;52.004;5.908;2023-05-16T03:50:46;9.40;82.50
42037;DHT22;30340;52.004;5.908;2023-05-16T03:53:12;9.40;82.40
42037;DHT22;30340;52.004;5.908;2023-05-16T03:55:37;9.50;82.40
42037;DHT22;30340;52.004;5.908;2023-05-16T03:58:03;9.50;82.40
42037;DHT22;30340;52.004;5.908;2023-05-16T04:00:28;9.60;82.30
42037;DHT22;30340;52.004;5.908;2023-05-16T04:02:54;9.60;82.10
42037;DHT22;30340;52.004;5.908;2023-05-16T04:05:20;9.70;82.10
42037;DHT22;30340;52.004;5.908;2023-05-16T04:07:45;9.70;82.00
42037;DHT22;30340;52.004;5.908;2023-05-16T04:10:11;9.70;82.10
42037;DHT22;30340;52.004;5.908;2023-05-16T04:12:37;9.80;82.20
42037;DHT22;30340;52.004;5.908;2023-05-16T04:15:03;9.80;82.00
42037;DHT22;30340;52.004;5.908;2023-05-16T04:17:29;9.90;81.90
42037;DHT22;30340;52.004;5.908;2023-05-16T04:19:55;9.90;81.80
42037;DHT22;30340;52.004;5.908;2023-05-16T04:22:21;9.90;81.80
42037;DHT22;30340;52.004;5.908;2023-05-16T04:24:47;10.00;81.70
42037;DHT22;30340;52.004;5.908;2023-05-16T04:27:13;10.00;81.50
42037;DHT22;30340;52.004;5.908;2023-05-16T04:29:39;10.10;81.30
42037;DHT22;30340;52.004;5.908;2023-05-16T04:32:05;10.10;81.30
42037;DHT22;30340;52.004;5.908;2023-05-16T04:34:32;10.20;81.30
42037;DHT22;30340;52.004;5.908;2023-05-16T04:36:58;10.20;81.20
42037;DHT22;30340;52.004;5.908;2023-05-16T04:39:24;10.30;81.20
42037;DHT22;30340;52.004;5.908;2023-05-16T04:41:50;10.30;81.20
42037;DHT22;30340;52.004;5.908;2023-05-16T04:44:15;10.30;81.00
42037;DHT22;30340;52.004;5.908;2023-05-16T04:46:41;10.40;81.00
42037;DHT22;30340;52.004;5.908;2023-05-16T04:49:07;10.40;80.80
42037;DHT22;30340;52.004;5.908;2023-05-16T04:51:32;10.40;80.80
42037;DHT22;30340;52.004;5.908;2023-05-16T04:53:59;10.40;80.80
42037;DHT22;30340;52.004;5.908;2023-05-16T04:56:25;10.50;80.80
42037;DHT22;30340;52.004;5.908;2023-05-16T04:58:53;10.60;80.80
42037;DHT22;30340;52.004;5.908;2023-05-16T05:01:19;10.50;80.60
42037;DHT22;30340;52.004;5.908;2023-05-16T05:03:44;10.50;80.50
42037;DHT22;30340;52.004;5.908;2023-05-16T05:06:10;10.60;80.60
42037;DHT22;30340;52.004;5.908;2023-05-16T05:08:35;10.60;80.60
42037;DHT22;30340;52.004;5.908;2023-05-16T05:11:01;10.70;80.70
42037;DHT22;30340;52.004;5.908;2023-05-16T05:13:27;10.70;80.60
42037;DHT22;30340;52.004;5.908;2023-05-16T05:15:52;10.90;80.50
42037;DHT22;30340;52.004;5.908;2023-05-16T05:18:18;11.10;80.00
42037;DHT22;30340;52.004;5.908;2023-05-16T05:20:44;11.20;79.40
42037;DHT22;30340;52.004;5.908;2023-05-16T05:23:09;11.20;79.10
42037;DHT22;30340;52.004;5.908;2023-05-16T05:25:35;11.20;79.70
42037;DHT22;30340;52.004;5.908;2023-05-16T05:28:01;11.20;79.10
42037;DHT22;30340;52.004;5.908;2023-05-16T05:30:27;11.30;79.20
42037;DHT22;30340;52.004;5.908;2023-05-16T05:32:52;11.30;78.90
42037;DHT22;30340;52.004;5.908;2023-05-16T05:35:19;11.30;78.60
42037;DHT22;30340;52.004;5.908;2023-05-16T05:37:45;11.40;78.50
42037;DHT22;30340;52.004;5.908;2023-05-16T05:40:10;11.40;78.50
42037;DHT22;30340;52.004;5.908;2023-05-16T05:42:36;11.40;78.30
42037;DHT22;30340;52.004;5.908;2023-05-16T05:45:02;11.40;78.30
42037;DHT22;30340;52.004;5.908;2023-05-16T05:47:27;11.40;78.10
42037;DHT22;30340;52.004;5.908;2023-05-16T05:49:53;11.40;78.20
42037;DHT22;30340;52.004;5.908;2023-05-16T05:52:18;11.70;78.00
42037;DHT22;30340;52.004;5.908;2023-05-16T05:54:44;11.80;77.10
42037;DHT22;30340;52.004;5.908;2023-05-16T05:57:10;11.60;76.90
42037;DHT22;30340;52.004;5.908;2023-05-16T05:59:35;11.50;77.10
42037;DHT22;30340;52.004;5.908;2023-05-16T06:02:01;11.40;77.40
42037;DHT22;30340;52.004;5.908;2023-05-16T06:04:26;11.30;77.50
42037;DHT22;30340;52.004;5.908;2023-05-16T06:06:52;11.30;77.70
42037;DHT22;30340;52.004;5.908;2023-05-16T06:09:17;11.30;77.80
42037;DHT22;30340;52.004;5.908;2023-05-16T06:11:43;11.30;78.00
42037;DHT22;30340;52.004;5.908;2023-05-16T06:14:10;11.20;78.10
42037;DHT22;30340;52.004;5.908;2023-05-16T06:16:36;11.30;78.10
42037;DHT22;30340;52.004;5.908;2023-05-16T06:19:01;11.50;78.00
42037;DHT22;30340;52.004;5.908;2023-05-16T06:21:27;12.70;76.40
42037;DHT22;30340;52.004;5.908;2023-05-16T06:23:52;13.30;73.70
42037;DHT22;30340;52.004;5.908;2023-05-16T06:26:18;13.60;71.80
42037;DHT22;30340;52.004;5.908;2023-05-16T06:28:43;13.30;71.70
42037;DHT22;30340;52.004;5.908;2023-05-16T06:31:09;12.90;72.30
42037;DHT22;30340;52.004;5.908;2023-05-16T06:33:35;12.50;73.20
42037;DHT22;30340;52.004;5.908;2023-05-16T06:36:00;12.20;74.00
42037;DHT22;30340;52.004;5.908;2023-05-16T06:38:27;12.20;74.60
42037;DHT22;30340;52.004;5.908;2023-05-16T06:40:52;12.10;74.90
42037;DHT22;30340;52.004;5.908;2023-05-16T06:43:18;12.20;75.10
42037;DHT22;30340;52.004;5.908;2023-05-16T06:45:44;12.30;75.00
42037;DHT22;30340;52.004;5.908;2023-05-16T06:48:12;12.50;74.70
42037;DHT22;30340;52.004;5.908;2023-05-16T06:50:37;12.40;74.40
42037;DHT22;30340;52.004;5.908;2023-05-16T06:53:03;12.70;74.70
42037;DHT22;30340;52.004;5.908;2023-05-16T06:55:30;13.00;74.40
42037;DHT22;30340;52.004;5.908;2023-05-16T06:57:56;13.20;73.90
42037;DHT22;30340;52.004;5.908;2023-05-16T07:00:21;13.50;73.20
42037;DHT22;30340;52.004;5.908;2023-05-16T07:02:47;13.70;72.90
42037;DHT22;30340;52.004;5.908;2023-05-16T07:05:12;14.00;72.20
42037;DHT22;30340;52.004;5.908;2023-05-16T07:07:38;14.30;71.50
42037;DHT22;30340;52.004;5.908;2023-05-16T07:10:04;14.60;69.70
42037;DHT22;30340;52.004;5.908;2023-05-16T07:12:29;14.60;69.10
42037;DHT22;30340;52.004;5.908;2023-05-16T07:14:55;14.70;68.50
42037;DHT22;30340;52.004;5.908;2023-05-16T07:17:21;14.70;68.00
42037;DHT22;30340;52.004;5.908;2023-05-16T07:19:46;15.00;68.20
42037;DHT22;30340;52.004;5.908;2023-05-16T07:22:12;15.20;67.80
42037;DHT22;30340;52.004;5.908;2023-05-16T07:24:37;15.40;66.80
42037;DHT22;30340;52.004;5.908;2023-05-16T07:27:03;15.30;64.70
42037;DHT22;30340;52.004;5.908;2023-05-16T07:29:29;15.20;63.80
42037;DHT22;30340;52.004;5.908;2023-05-16T07:31:55;14.90;62.40
42037;DHT22;30340;52.004;5.908;2023-05-16T07:34:20;14.70;62.70
42037;DHT22;30340;52.004;5.908;2023-05-16T07:36:46;14.60;63.20
42037;DHT22;30340;52.004;5.908;2023-05-16T07:39:11;14.80;63.60
42037;DHT22;30340;52.004;5.908;2023-05-16T07:41:37;15.00;63.50
42037;DHT22;30340;52.004;5.908;2023-05-16T07:44:02;15.10;62.40
42037;DHT22;30340;52.004;5.908;2023-05-16T07:46:28;14.90;61.70
42037;DHT22;30340;52.004;5.908;2023-05-16T07:48:54;14.80;61.90
42037;DHT22;30340;52.004;5.908;2023-05-16T07:51:19;14.80;61.90
42037;DHT22;30340;52.004;5.908;2023-05-16T07:53:45;14.70;62.20
42037;DHT22;30340;52.004;5.908;2023-05-16T07:56:11;14.60;62.00
42037;DHT22;30340;52.004;5.908;2023-05-16T07:58:37;14.50;62.10
42037;DHT22;30340;52.004;5.908;2023-05-16T08:01:03;14.30;62.10
42037;DHT22;30340;52.004;5.908;2023-05-16T08:03:28;14.10;61.80
42037;DHT22;30340;52.004;5.908;2023-05-16T08:05:54;14.00;62.10
42037;DHT22;30340;52.004;5.908;2023-05-16T08:08:20;13.90;62.30
42037;DHT22;30340;52.004;5.908;2023-05-16T08:10:45;14.10;62.30
42037;DHT22;30340;52.004;5.908;2023-05-16T08:13:11;14.20;61.80
42037;DHT22;30340;52.004;5.908;2023-05-16T08:15:37;14.40;60.80
42037;DHT22;30340;52.004;5.908;2023-05-16T08:18:02;14.50;60.10
42037;DHT22;30340;52.004;5.908;2023-05-16T08:20:28;14.80;60.10
42037;DHT22;30340;52.004;5.908;2023-05-16T08:22:54;14.80;59.70
42037;DHT22;30340;52.004;5.908;2023-05-16T08:25:20;14.80;59.10
42037;DHT22;30340;52.004;5.908;2023-05-16T08:27:47;14.60;59.60
42037;DHT22;30340;52.004;5.908;2023-05-16T08:30:13;14.50;60.40
42037;DHT22;30340;52.004;5.908;2023-05-16T08:32:38;14.50;60.70
42037;DHT22;30340;52.004;5.908;2023-05-16T08:35:04;14.40;61.00
42037;DHT22;30340;52.004;5.908;2023-05-16T08:37:30;14.30;60.90
42037;DHT22;30340;52.004;5.908;2023-05-16T08:39:56;14.50;61.00
42037;DHT22;30340;52.004;5.908;2023-05-16T08:42:22;14.80;60.80
42037;DHT22;30340;52.004;5.908;2023-05-16T08:44:48;14.90;60.10
42037;DHT22;30340;52.004;5.908;2023-05-16T08:47:17;15.00;60.00
42037;DHT22;30340;52.004;5.908;2023-05-16T08:49:47;15.10;59.90
42037;DHT22;30340;52.004;5.908;2023-05-16T08:52:12;15.00;59.90
42037;DHT22;30340;52.004;5.908;2023-05-16T08:54:38;14.90;60.10
42037;DHT22;30340;52.004;5.908;2023-05-16T08:57:05;14.80;60.50
42037;DHT22;30340;52.004;5.908;2023-05-16T08:59:33;14.80;60.00
42037;DHT22;30340;52.004;5.908;2023-05-16T09:01:59;14.90;59.90
42037;DHT22;30340;52.004;5.908;2023-05-16T09:04:25;15.10;59.60
42037;DHT22;30340;52.004;5.908;2023-05-16T09:06:52;15.20;59.10
42037;DHT22;30340;52.004;5.908;2023-05-16T09:09:17;15.40;58.30
42037;DHT22;30340;52.004;5.908;2023-05-16T09:11:44;15.70;57.60
42037;DHT22;30340;52.004;5.908;2023-05-16T09:14:10;15.80;56.10
42037;DHT22;30340;52.004;5.908;2023-05-16T09:16:35;15.90;55.90
42037;DHT22;30340;52.004;5.908;2023-05-16T09:19:01;16.00;55.90
42037;DHT22;30340;52.004;5.908;2023-05-16T09:21:28;15.90;56.20
42037;DHT22;30340;52.004;5.908;2023-05-16T09:23:54;15.80;56.40
42037;DHT22;30340;52.004;5.908;2023-05-16T09:26:20;15.60;56.60
42037;DHT22;30340;52.004;5.908;2023-05-16T09:28:47;15.40;56.10
42037;DHT22;30340;52.004;5.908;2023-05-16T09:31:23;15.10;55.60
42037;DHT22;30340;52.004;5.908;2023-05-16T09:33:54;14.90;55.50
42037;DHT22;30340;52.004;5.908;2023-05-16T09:36:20;14.90;56.40
42037;DHT22;30340;52.004;5.908;2023-05-16T09:38:46;14.90;57.00
42037;DHT22;30340;52.004;5.908;2023-05-16T09:41:11;15.00;57.50
42037;DHT22;30340;52.004;5.908;2023-05-16T09:43:39;15.20;57.90
42037;DHT22;30340;52.004;5.908;2023-05-16T09:46:05;15.40;57.80
42037;DHT22;30340;52.004;5.908;2023-05-16T09:48:34;15.60;57.70
42037;DHT22;30340;52.004;5.908;2023-05-16T09:50:59;15.80;57.30
42037;DHT22;30340;52.004;5.908;2023-05-16T09:53:30;16.10;57.30
42037;DHT22;30340;52.004;5.908;2023-05-16T09:56:04;16.30;56.70
42037;DHT22;30340;52.004;5.908;2023-05-16T09:58:31;16.30;55.90
42037;DHT22;30340;52.004;5.908;2023-05-16T10:00:57;16.40;55.70
42037;DHT22;30340;52.004;5.908;2023-05-16T10:03:25;16.20;54.80
42037;DHT22;30340;52.004;5.908;2023-05-16T10:05:52;16.00;54.80
42037;DHT22;30340;52.004;5.908;2023-05-16T10:08:22;15.90;55.00
42037;DHT22;30340;52.004;5.908;2023-05-16T10:10:53;15.70;54.70
42037;DHT22;30340;52.004;5.908;2023-05-16T10:13:27;15.70;55.20
42037;DHT22;30340;52.004;5.908;2023-05-16T10:15:56;15.90;55.40
42037;DHT22;30340;52.004;5.908;2023-05-16T10:18:27;15.90;55.30
42037;DHT22;30340;52.004;5.908;2023-05-16T10:20:54;15.90;55.30
42037;DHT22;30340;52.004;5.908;2023-05-16T10:23:20;15.80;55.40
42037;DHT22;30340;52.004;5.908;2023-05-16T10:25:48;15.70;55.90
42037;DHT22;30340;52.004;5.908;2023-05-16T10:28:15;15.80;55.60
42037;DHT22;30340;52.004;5.908;2023-05-16T10:30:42;15.90;55.30
42037;DHT22;30340;52.004;5.908;2023-05-16T10:33:17;16.20;54.80
42037;DHT22;30340;52.004;5.908;2023-05-16T10:35:43;16.20;53.90
42037;DHT22;30340;52.004;5.908;2023-05-16T10:38:10;16.10;53.60
42037;DHT22;30340;52.004;5.908;2023-05-16T10:40:38;16.00;53.30
42037;DHT22;30340;52.004;5.908;2023-05-16T10:43:05;16.10;53.40
42037;DHT22;30340;52.004;5.908;2023-05-16T10:45:31;16.20;52.70
42037;DHT22;30340;52.004;5.908;2023-05-16T10:47:59;16.40;52.10
42037;DHT22;30340;52.004;5.908;2023-05-16T10:50:39;16.50;51.00
42037;DHT22;30340;52.004;5.908;2023-05-16T10:53:18;16.80;51.00
42037;DHT22;30340;52.004;5.908;2023-05-16T11:01:29;16.50;50.60
42037;DHT22;30340;52.004;5.908;2023-05-16T11:06:26;16.50;51.80
42037;DHT22;30340;52.004;5.908;2023-05-16T11:09:06;16.70;52.00
42037;DHT22;30340;52.004;5.908;2023-05-16T11:19:38;17.20;47.20
42037;DHT22;30340;52.004;5.908;2023-05-16T11:22:11;17.20;45.50
42037;DHT22;30340;52.004;5.908;2023-05-16T11:27:13;17.50;45.90
42037;DHT22;30340;52.004;5.908;2023-05-16T11:29:45;17.50;46.40
42037;DHT22;30340;52.004;5.908;2023-05-16T11:32:10;17.80;46.60
42037;DHT22;30340;52.004;5.908;2023-05-16T11:34:37;17.90;46.40
42037;DHT22;30340;52.004;5.908;2023-05-16T11:37:04;17.80;45.90
42037;DHT22;30340;52.004;5.908;2023-05-16T11:39:31;17.60;46.40
42037;DHT22;30340;52.004;5.908;2023-05-16T11:41:56;17.50;46.90
42037;DHT22;30340;52.004;5.908;2023-05-16T11:44:22;17.40;47.30
42037;DHT22;30340;52.004;5.908;2023-05-16T11:46:47;17.30;47.30
42037;DHT22;30340;52.004;5.908;2023-05-16T11:49:13;17.20;47.20
42037;DHT22;30340;52.004;5.908;2023-05-16T11:51:42;17.00;46.90
42037;DHT22;30340;52.004;5.908;2023-05-16T11:54:09;17.00;47.30
42037;DHT22;30340;52.004;5.908;2023-05-16T11:56:35;17.00;47.30
42037;DHT22;30340;52.004;5.908;2023-05-16T11:59:01;17.20;47.70
42037;DHT22;30340;52.004;5.908;2023-05-16T12:01:38;17.30;47.50
42037;DHT22;30340;52.004;5.908;2023-05-16T12:06:34;17.40;47.10
42037;DHT22;30340;52.004;5.908;2023-05-16T12:08:59;17.30;47.40
42037;DHT22;30340;52.004;5.908;2023-05-16T12:11:29;17.30;47.40
42037;DHT22;30340;52.004;5.908;2023-05-16T12:13:54;17.30;47.80
42037;DHT22;30340;52.004;5.908;2023-05-16T12:16:20;17.20;47.10
42037;DHT22;30340;52.004;5.908;2023-05-16T12:18:47;17.00;47.20
42037;DHT22;30340;52.004;5.908;2023-05-16T12:21:13;17.00;47.70
42037;DHT22;30340;52.004;5.908;2023-05-16T12:23:41;17.20;47.80
42037;DHT22;30340;52.004;5.908;2023-05-16T12:26:06;17.40;47.70
42037;DHT22;30340;52.004;5.908;2023-05-16T12:28:33;17.50;47.00
42037;DHT22;30340;52.004;5.908;2023-05-16T12:30:59;17.50;47.10
42037;DHT22;30340;52.004;5.908;2023-05-16T12:33:26;17.40;46.90
42037;DHT22;30340;52.004;5.908;2023-05-16T12:35:52;17.20;47.20
42037;DHT22;30340;52.004;5.908;2023-05-16T12:38:19;17.20;47.50
42037;DHT22;30340;52.004;5.908;2023-05-16T12:40:45;17.10;47.30
42037;DHT22;30340;52.004;5.908;2023-05-16T12:43:16;17.20;47.70
42037;DHT22;30340;52.004;5.908;2023-05-16T12:45:54;17.10;47.70
42037;DHT22;30340;52.004;5.908;2023-05-16T12:48:21;17.00;48.00
42037;DHT22;30340;52.004;5.908;2023-05-16T12:50:47;16.90;47.90
42037;DHT22;30340;52.004;5.908;2023-05-16T12:53:14;16.80;48.50
42037;DHT22;30340;52.004;5.908;2023-05-16T12:55:41;16.80;48.80
42037;DHT22;30340;52.004;5.908;2023-05-16T12:58:08;16.70;49.10
42037;DHT22;30340;52.004;5.908;2023-05-16T13:00:34;16.70;49.50
42037;DHT22;30340;52.004;5.908;2023-05-16T13:03:00;16.60;49.70
42037;DHT22;30340;52.004;5.908;2023-05-16T13:05:26;16.50;50.20
42037;DHT22;30340;52.004;5.908;2023-05-16T13:07:52;16.50;50.60
42037;DHT22;30340;52.004;5.908;2023-05-16T13:10:17;16.40;51.00
42037;DHT22;30340;52.004;5.908;2023-05-16T13:12:43;16.40;51.60
42037;DHT22;30340;52.004;5.908;2023-05-16T13:15:10;16.50;51.80
42037;DHT22;30340;52.004;5.908;2023-05-16T13:17:41;16.60;51.60
42037;DHT22;30340;52.004;5.908;2023-05-16T13:20:10;16.70;51.40
42037;DHT22;30340;52.004;5.908;2023-05-16T13:22:40;16.80;51.10
42037;DHT22;30340;52.004;5.908;2023-05-16T13:25:06;16.80;50.80
42037;DHT22;30340;52.004;5.908;2023-05-16T13:27:32;16.80;50.50
42037;DHT22;30340;52.004;5.908;2023-05-16T13:29:58;17.00;50.70
42037;DHT22;30340;52.004;5.908;2023-05-16T13:32:24;17.10;50.50
42037;DHT22;30340;52.004;5.908;2023-05-16T13:34:50;17.00;50.00
42037;DHT22;30340;52.004;5.908;2023-05-16T13:37:16;16.90;50.10
42037;DHT22;30340;52.004;5.908;2023-05-16T13:39:42;16.80;50.60
42037;DHT22;30340;52.004;5.908;2023-05-16T13:42:07;16.70;50.80
42037;DHT22;30340;52.004;5.908;2023-05-16T13:44:33;16.60;52.00
42037;DHT22;30340;52.004;5.908;2023-05-16T13:46:59;16.40;51.60
42037;DHT22;30340;52.004;5.908;2023-05-16T13:49:24;16.30;52.20
42037;DHT22;30340;52.004;5.908;2023-05-16T13:51:50;16.20;52.60
42037;DHT22;30340;52.004;5.908;2023-05-16T13:54:17;16.10;52.90
42037;DHT22;30340;52.004;5.908;2023-05-16T13:56:43;16.00;53.40
42037;DHT22;30340;52.004;5.908;2023-05-16T13:59:08;15.90;53.50
42037;DHT22;30340;52.004;5.908;2023-05-16T14:01:34;15.80;53.70
42037;DHT22;30340;52.004;5.908;2023-05-16T14:04:01;15.70;54.00
42037;DHT22;30340;52.004;5.908;2023-05-16T14:06:26;15.70;54.40
42037;DHT22;30340;52.004;5.908;2023-05-16T14:08:52;15.60;54.80
42037;DHT22;30340;52.004;5.908;2023-05-16T14:11:18;15.50;55.20
42037;DHT22;30340;52.004;5.908;2023-05-16T14:13:44;15.30;55.60
42037;DHT22;30340;52.004;5.908;2023-05-16T14:16:10;15.30;55.90
42037;DHT22;30340;52.004;5.908;2023-05-16T14:18:35;15.30;56.10
42037;DHT22;30340;52.004;5.908;2023-05-16T14:21:01;15.20;56.40
42037;DHT22;30340;52.004;5.908;2023-05-16T14:23:27;15.10;56.60
42037;DHT22;30340;52.004;5.908;2023-05-16T14:25:53;15.00;57.10
42037;DHT22;30340;52.004;5.908;2023-05-16T14:28:18;15.00;57.70
42037;DHT22;30340;52.004;5.908;2023-05-16T14:30:44;14.90;58.40
42037;DHT22;30340;52.004;5.908;2023-05-16T14:33:09;14.90;58.90
42037;DHT22;30340;52.004;5.908;2023-05-16T14:35:35;15.00;59.10
42037;DHT22;30340;52.004;5.908;2023-05-16T14:38:03;15.10;59.10
42037;DHT22;30340;52.004;5.908;2023-05-16T14:40:28;15.10;59.10
42037;DHT22;30340;52.004;5.908;2023-05-16T14:42:54;15.20;59.00
42037;DHT22;30340;52.004;5.908;2023-05-16T14:45:19;15.30;58.70
42037;DHT22;30340;52.004;5.908;2023-05-16T14:47:45;15.30;58.40
42037;DHT22;30340;52.004;5.908;2023-05-16T14:50:12;15.40;58.20
42037;DHT22;30340;52.004;5.908;2023-05-16T14:52:39;15.40;58.00
42037;DHT22;30340;52.004;5.908;2023-05-16T14:55:05;15.50;57.70
42037;DHT22;30340;52.004;5.908;2023-05-16T14:57:30;15.60;57.40
42037;DHT22;30340;52.004;5.908;2023-05-16T14:59:57;15.70;57.10
42037;DHT22;30340;52.004;5.908;2023-05-16T15:02:23;15.70;56.90
42037;DHT22;30340;52.004;5.908;2023-05-16T15:04:48;15.70;56.60
42037;DHT22;30340;52.004;5.908;2023-05-16T15:07:14;15.70;56.30
42037;DHT22;30340;52.004;5.908;2023-05-16T15:09:40;15.60;56.40
42037;DHT22;30340;52.004;5.908;2023-05-16T15:12:06;15.60;56.50
42037;DHT22;30340;52.004;5.908;2023-05-16T15:14:32;15.50;56.10
42037;DHT22;30340;52.004;5.908;2023-05-16T15:16:58;15.40;56.10
42037;DHT22;30340;52.004;5.908;2023-05-16T15:19:23;15.30;56.30
42037;DHT22;30340;52.004;5.908;2023-05-16T15:21:49;15.20;56.40
42037;DHT22;30340;52.004;5.908;2023-05-16T15:24:15;15.20;56.60
42037;DHT22;30340;52.004;5.908;2023-05-16T15:26:41;15.30;56.60
42037;DHT22;30340;52.004;5.908;2023-05-16T15:29:07;15.30;56.60
42037;DHT22;30340;52.004;5.908;2023-05-16T15:31:32;15.30;56.70
42037;DHT22;30340;52.004;5.908;2023-05-16T15:33:58;15.40;56.70
42037;DHT22;30340;52.004;5.908;2023-05-16T15:36:24;15.30;56.40
42037;DHT22;30340;52.004;5.908;2023-05-16T15:38:49;15.40;56.60
42037;DHT22;30340;52.004;5.908;2023-05-16T15:41:15;15.30;56.50
42037;DHT22;30340;52.004;5.908;2023-05-16T15:43:41;15.30;56.50
42037;DHT22;30340;52.004;5.908;2023-05-16T15:46:09;15.30;56.60
42037;DHT22;30340;52.004;5.908;2023-05-16T15:48:36;15.30;56.50
42037;DHT22;30340;52.004;5.908;2023-05-16T15:51:02;15.30;56.50
42037;DHT22;30340;52.004;5.908;2023-05-16T15:53:28;15.30;56.50
42037;DHT22;30340;52.004;5.908;2023-05-16T15:55:54;15.30;56.30
42037;DHT22;30340;52.004;5.908;2023-05-16T15:58:20;15.30;56.20
42037;DHT22;30340;52.004;5.908;2023-05-16T16:00:46;15.20;55.90